createdAt,value
2022-10-17T00:00:46.918Z,15.35
2022-10-17T00:02:49.501Z,15.32
2022-10-17T00:04:53.451Z,15.35
2022-10-17T00:06:56.038Z,15.31
2022-10-17T00:08:58.630Z,15.27
2022-10-17T00:11:02.896Z,15.31
2022-10-17T00:13:05.653Z,15.31
2022-10-17T00:15:09.533Z,15.32
2022-10-17T00:17:12.126Z,15.27
2022-10-17T00:19:14.689Z,15.26
2022-10-17T00:21:20.522Z,15.27
2022-10-17T00:23:23.184Z,15.25
2022-10-17T00:25:25.772Z,15.26
2022-10-17T00:27:28.694Z,15.26
2022-10-17T00:29:31.641Z,15.24
2022-10-17T00:31:35.636Z,15.23
2022-10-17T00:33:39.198Z,15.21
2022-10-17T00:35:41.809Z,15.14
2022-10-17T00:37:45.682Z,15.14
2022-10-17T00:39:48.244Z,15.10
2022-10-17T00:41:50.986Z,15.08
2022-10-17T00:43:56.809Z,15.07
2022-10-17T00:45:59.479Z,15.01
2022-10-17T00:48:06.188Z,14.99
2022-10-17T00:50:09.548Z,14.98
2022-10-17T00:52:16.519Z,14.94
2022-10-17T00:54:23.429Z,14.92
2022-10-17T00:56:26.120Z,14.93
2022-10-17T00:58:28.942Z,14.90
2022-10-17T01:00:32.115Z,14.88
2022-10-17T01:02:34.773Z,14.84
2022-10-17T01:04:37.923Z,14.77
2022-10-17T01:06:40.501Z,14.69
2022-10-17T01:08:43.132Z,14.61
2022-10-17T01:10:58.785Z,14.58
2022-10-17T01:13:12.529Z,14.57
2022-10-17T01:15:24.776Z,14.54
2022-10-17T01:17:36.828Z,14.51
2022-10-17T01:20:00.372Z,14.46
2022-10-17T01:22:10.626Z,14.48
2022-10-17T01:24:43.072Z,14.46
2022-10-17T01:27:00.223Z,14.47
2022-10-17T01:29:30.412Z,14.41
2022-10-17T01:31:39.510Z,14.42
2022-10-17T01:33:52.669Z,14.39
2022-10-17T01:36:03.384Z,14.38
2022-10-17T01:38:12.541Z,14.34
2022-10-17T01:40:21.280Z,14.34
2022-10-17T01:42:28.301Z,14.33
2022-10-17T01:44:37.928Z,14.33
2022-10-17T01:46:46.405Z,14.33
2022-10-17T01:48:49.058Z,14.31
2022-10-17T01:50:54.629Z,14.36
2022-10-17T01:53:03.613Z,14.20
2022-10-17T01:55:11.116Z,14.31
2022-10-17T01:57:21.443Z,14.16
2022-10-17T01:59:28.142Z,14.11
2022-10-17T02:01:32.446Z,14.10
2022-10-17T02:03:36.872Z,14.01
2022-10-17T02:05:42.430Z,13.98
2022-10-17T02:07:45.065Z,13.92
2022-10-17T02:09:47.673Z,13.89
2022-10-17T02:12:13.099Z,13.88
2022-10-17T02:14:30.719Z,13.83
2022-10-17T02:16:39.748Z,13.83
2022-10-17T02:19:08.698Z,13.85
2022-10-17T02:21:17.699Z,13.94
2022-10-17T02:23:28.615Z,13.89
2022-10-17T02:25:38.789Z,13.89
2022-10-17T02:27:49.395Z,13.88
2022-10-17T02:29:58.339Z,13.88
2022-10-17T02:32:04.955Z,13.90
2022-10-17T02:34:13.114Z,13.92
2022-10-17T02:36:20.973Z,13.98
2022-10-17T02:38:25.289Z,13.99
2022-10-17T02:40:31.154Z,13.98
2022-10-17T02:42:34.904Z,13.97
2022-10-17T02:44:40.155Z,14.00
2022-10-17T02:46:46.260Z,14.02
2022-10-17T02:48:51.657Z,13.98
2022-10-17T02:51:03.113Z,13.93
2022-10-17T02:53:12.657Z,13.93
2022-10-17T02:55:18.780Z,13.92
2022-10-17T02:57:28.360Z,13.88
2022-10-17T03:01:40.575Z,13.74
2022-10-17T03:03:43.225Z,13.70
2022-10-17T03:05:45.804Z,13.70
2022-10-17T03:07:49.926Z,13.68
2022-10-17T03:09:52.461Z,13.68
2022-10-17T03:11:55.323Z,13.65
2022-10-17T03:13:57.898Z,13.63
2022-10-17T03:16:00.506Z,13.54
2022-10-17T03:18:03.116Z,13.50
2022-10-17T03:20:06.871Z,13.50
2022-10-17T03:22:09.559Z,13.44
2022-10-17T03:24:13.649Z,13.42
2022-10-17T03:26:16.529Z,13.45
2022-10-17T03:28:19.125Z,13.42
2022-10-17T03:30:21.983Z,13.41
2022-10-17T03:32:24.551Z,13.31
2022-10-17T03:34:27.143Z,13.30
2022-10-17T03:36:29.796Z,13.26
2022-10-17T03:38:32.350Z,13.26
2022-10-17T03:40:36.529Z,13.25
2022-10-17T03:42:39.151Z,13.30
2022-10-17T03:44:41.900Z,13.42
2022-10-17T03:46:44.576Z,13.27
2022-10-17T03:48:47.186Z,13.21
2022-10-17T03:50:50.032Z,13.20
2022-10-17T03:52:52.868Z,13.17
2022-10-17T03:54:55.406Z,13.15
2022-10-17T03:56:59.321Z,13.13
2022-10-17T03:59:01.881Z,13.08
2022-10-17T04:01:05.597Z,13.08
2022-10-17T04:03:08.257Z,13.09
2022-10-17T04:05:10.787Z,13.10
2022-10-17T04:07:13.419Z,13.09
2022-10-17T04:09:16.274Z,13.07
2022-10-17T04:11:20.939Z,13.07
2022-10-17T04:13:24.931Z,13.08
2022-10-17T04:15:27.651Z,13.09
2022-10-17T04:17:35.894Z,13.10
2022-10-17T04:19:40.897Z,13.09
2022-10-17T04:21:45.080Z,13.10
2022-10-17T04:23:47.711Z,13.14
2022-10-17T04:25:50.325Z,13.15
2022-10-17T04:27:52.914Z,13.10
2022-10-17T04:29:56.833Z,13.12
2022-10-17T04:31:59.392Z,13.12
2022-10-17T04:34:01.937Z,13.11
2022-10-17T04:36:07.202Z,13.12
2022-10-17T04:38:09.765Z,13.13
2022-10-17T04:40:12.739Z,13.10
2022-10-17T04:42:15.290Z,13.09
2022-10-17T04:44:18.071Z,13.06
2022-10-17T04:46:22.007Z,13.09
2022-10-17T04:48:24.580Z,13.09
2022-10-17T04:50:27.208Z,13.10
2022-10-17T04:52:30.070Z,13.09
2022-10-17T04:54:32.901Z,13.07
2022-10-17T04:56:35.605Z,13.04
2022-10-17T04:58:38.921Z,13.03
2022-10-17T05:00:41.866Z,13.01
2022-10-17T05:02:45.876Z,13.01
2022-10-17T05:04:48.457Z,12.98
2022-10-17T05:06:50.992Z,12.95
2022-10-17T05:08:53.556Z,12.95
2022-10-17T05:10:56.335Z,12.95
2022-10-17T05:12:58.924Z,12.90
2022-10-17T05:15:01.488Z,12.86
2022-10-17T05:19:25.569Z,12.81
2022-10-17T05:23:38.681Z,12.83
2022-10-17T05:25:41.343Z,12.81
2022-10-17T05:27:43.938Z,12.89
2022-10-17T05:29:46.622Z,12.91
2022-10-17T05:31:49.235Z,12.88
2022-10-17T05:33:51.814Z,12.84
2022-10-17T05:35:55.792Z,12.79
2022-10-17T05:38:00.009Z,12.79
2022-10-17T05:40:02.734Z,12.78
2022-10-17T05:42:05.452Z,12.75
2022-10-17T05:44:08.069Z,12.78
2022-10-17T05:46:10.967Z,12.80
2022-10-17T05:48:13.531Z,12.82
2022-10-17T05:50:16.254Z,12.81
2022-10-17T05:52:20.271Z,12.81
2022-10-17T05:54:22.832Z,12.80
2022-10-17T05:56:25.373Z,12.72
2022-10-17T06:00:51.603Z,12.78
2022-10-17T06:02:54.164Z,12.70
2022-10-17T06:04:56.715Z,12.71
2022-10-17T06:06:59.303Z,12.73
2022-10-17T06:09:03.255Z,12.73
2022-10-17T06:11:09.203Z,12.75
2022-10-17T06:13:12.976Z,12.78
2022-10-17T06:15:15.548Z,12.80
2022-10-17T06:17:18.221Z,12.79
2022-10-17T06:19:20.882Z,12.80
2022-10-17T06:21:25.380Z,12.82
2022-10-17T06:23:28.510Z,12.81
2022-10-17T06:25:33.808Z,12.79
2022-10-17T06:27:36.444Z,12.80
2022-10-17T06:29:39.097Z,12.80
2022-10-17T06:31:41.653Z,12.81
2022-10-17T06:33:44.519Z,12.86
2022-10-17T06:35:52.223Z,12.92
2022-10-17T06:37:54.830Z,12.97
2022-10-17T06:39:57.423Z,13.02
2022-10-17T06:42:01.901Z,12.98
2022-10-17T06:44:10.827Z,12.97
2022-10-17T06:46:14.561Z,12.94
2022-10-17T06:48:17.151Z,12.96
2022-10-17T06:50:19.748Z,12.99
2022-10-17T06:52:22.462Z,13.03
2022-10-17T06:54:25.168Z,13.04
2022-10-17T06:56:27.769Z,13.09
2022-10-17T06:58:33.408Z,13.07
2022-10-17T07:00:36.082Z,13.17
2022-10-17T07:02:38.731Z,13.19
2022-10-17T07:04:41.323Z,13.12
2022-10-17T07:06:43.909Z,13.28
2022-10-17T07:08:47.140Z,13.38
2022-10-17T07:10:51.187Z,13.37
2022-10-17T07:12:53.854Z,13.34
2022-10-17T07:14:57.719Z,13.42
2022-10-17T07:17:00.499Z,13.50
2022-10-17T07:19:03.079Z,13.46
2022-10-17T07:21:06.048Z,13.49
2022-10-17T07:23:08.662Z,13.51
2022-10-17T07:25:11.223Z,13.51
2022-10-17T07:27:13.927Z,13.61
2022-10-17T07:29:16.520Z,13.58
2022-10-17T07:31:22.347Z,13.53
2022-10-17T07:33:24.999Z,13.55
2022-10-17T07:35:27.840Z,13.77
2022-10-17T07:37:30.760Z,13.69
2022-10-17T07:39:35.580Z,13.76
2022-10-17T07:41:38.203Z,13.74
2022-10-17T07:43:42.831Z,13.78
2022-10-17T07:45:45.393Z,13.88
2022-10-17T07:47:49.368Z,14.00
2022-10-17T07:49:51.952Z,14.00
2022-10-17T07:51:54.562Z,13.95
2022-10-17T07:53:57.107Z,14.01
2022-10-17T07:55:59.712Z,13.97
2022-10-17T07:58:02.261Z,13.99
2022-10-17T08:00:05.617Z,14.07
2022-10-17T08:02:08.477Z,14.07
2022-10-17T08:04:12.438Z,14.14
2022-10-17T08:06:15.650Z,14.21
2022-10-17T08:08:18.201Z,14.26
2022-10-17T08:10:21.395Z,14.30
2022-10-17T08:12:25.878Z,14.35
2022-10-17T08:14:28.470Z,14.38
2022-10-17T08:16:31.047Z,14.39
2022-10-17T08:18:33.653Z,14.46
2022-10-17T08:20:37.918Z,14.49
2022-10-17T08:22:40.476Z,14.53
2022-10-17T08:24:44.455Z,14.57
2022-10-17T08:26:49.577Z,14.62
2022-10-17T08:28:54.342Z,14.67
2022-10-17T08:31:03.527Z,14.71
2022-10-17T08:33:06.233Z,14.75
2022-10-17T08:35:09.579Z,14.78
2022-10-17T08:37:13.935Z,14.87
2022-10-17T08:39:16.501Z,14.87
2022-10-17T08:41:34.878Z,15.01
2022-10-17T08:43:47.831Z,14.96
2022-10-17T08:45:55.720Z,15.01
2022-10-17T08:48:00.733Z,15.12
2022-10-17T08:50:05.131Z,15.19
2022-10-17T08:52:16.551Z,15.19
2022-10-17T08:54:23.599Z,15.22
2022-10-17T08:56:44.429Z,15.23
2022-10-17T08:58:50.757Z,15.26
2022-10-17T09:01:03.107Z,15.27
2022-10-17T09:03:21.220Z,15.30
2022-10-17T09:05:36.862Z,15.34
2022-10-17T09:07:51.023Z,15.38
2022-10-17T09:10:03.191Z,15.43
2022-10-17T09:12:21.814Z,15.50
2022-10-17T09:14:59.730Z,15.54
2022-10-17T09:17:13.583Z,15.58
2022-10-17T09:19:22.317Z,15.63
2022-10-17T09:21:31.571Z,15.75
2022-10-17T09:23:48.186Z,15.84
2022-10-17T09:25:54.892Z,15.87
2022-10-17T09:28:07.311Z,15.95
2022-10-17T09:30:46.366Z,15.97
2022-10-17T09:32:49.340Z,16.00
2022-10-17T09:34:53.025Z,16.01
2022-10-17T09:36:56.809Z,16.03
2022-10-17T09:39:03.263Z,16.03
2022-10-17T09:41:39.324Z,16.04
2022-10-17T09:43:38.340Z,16.14
2022-10-17T09:45:46.955Z,16.19
2022-10-17T09:47:59.612Z,16.22
2022-10-17T09:50:04.634Z,16.23
2022-10-17T09:52:13.345Z,16.27
2022-10-17T09:54:23.745Z,16.29
2022-10-17T09:56:26.327Z,16.29
2022-10-17T09:58:41.694Z,16.32
2022-10-17T10:00:47.374Z,16.33
2022-10-17T10:02:49.984Z,16.42
2022-10-17T10:05:06.862Z,16.47
2022-10-17T10:07:14.072Z,16.58
2022-10-17T10:09:25.638Z,16.64
2022-10-17T10:11:46.803Z,16.67
2022-10-17T10:13:50.207Z,16.69
2022-10-17T10:15:52.895Z,16.76
2022-10-17T10:17:55.501Z,16.79
2022-10-17T10:19:58.064Z,16.84
2022-10-17T10:22:02.710Z,16.86
2022-10-17T10:24:12.281Z,16.88
2022-10-17T10:26:28.417Z,16.95
2022-10-17T10:28:33.014Z,16.99
2022-10-17T10:30:39.058Z,17.05
2022-10-17T10:32:48.529Z,17.12
2022-10-17T10:34:54.209Z,17.17
2022-10-17T10:37:02.070Z,17.25
2022-10-17T10:39:05.404Z,17.31
2022-10-17T10:41:11.074Z,17.38
2022-10-17T10:43:24.399Z,17.43
2022-10-17T10:45:46.983Z,17.49
2022-10-17T10:47:52.900Z,17.56
2022-10-17T10:50:18.401Z,17.61
2022-10-17T10:52:43.033Z,17.67
2022-10-17T10:54:55.177Z,17.72
2022-10-17T10:57:00.997Z,17.77
2022-10-17T10:59:11.548Z,17.83
2022-10-17T11:01:23.475Z,17.87
2022-10-17T11:03:32.398Z,17.90
2022-10-17T11:05:42.758Z,17.91
2022-10-17T11:07:52.337Z,17.94
2022-10-17T11:09:59.755Z,17.95
2022-10-17T11:12:08.933Z,18.00
2022-10-17T11:14:19.340Z,18.02
2022-10-17T11:16:32.633Z,18.04
2022-10-17T11:18:43.775Z,18.03
2022-10-17T11:20:53.982Z,18.01
2022-10-17T11:23:02.535Z,18.06
2022-10-17T11:25:16.122Z,18.07
2022-10-17T11:27:18.737Z,18.07
2022-10-17T11:29:25.955Z,18.07
2022-10-17T11:31:32.439Z,18.08
2022-10-17T11:33:43.665Z,18.08
2022-10-17T11:35:50.086Z,18.13
2022-10-17T11:37:59.231Z,18.19
2022-10-17T11:40:07.278Z,18.18
2022-10-17T11:42:15.530Z,18.15
2022-10-17T11:44:26.181Z,18.17
2022-10-17T11:46:29.571Z,18.18
2022-10-17T11:48:40.448Z,18.18
2022-10-17T11:53:15.637Z,18.14
2022-10-17T11:55:22.692Z,18.19
2022-10-17T11:57:45.859Z,18.24
2022-10-17T12:00:04.003Z,18.30
2022-10-17T12:02:12.971Z,18.33
2022-10-17T12:04:29.899Z,18.43
2022-10-17T12:06:45.169Z,18.47
2022-10-17T12:08:54.985Z,18.84
2022-10-17T12:11:02.264Z,18.84
2022-10-17T12:13:41.717Z,18.86
2022-10-17T12:15:46.735Z,19.17
2022-10-17T12:17:56.492Z,19.12
2022-10-17T12:20:28.549Z,19.43
2022-10-17T12:22:30.972Z,19.39
2022-10-17T12:24:41.311Z,19.41
2022-10-17T12:26:46.627Z,19.49
2022-10-17T12:28:49.429Z,19.56
2022-10-17T12:30:56.810Z,19.91
2022-10-17T12:33:06.531Z,20.19
2022-10-17T12:35:21.766Z,20.61
2022-10-17T12:38:01.199Z,20.35
2022-10-17T12:40:04.088Z,20.53
2022-10-17T12:42:31.288Z,20.52
2022-10-17T12:44:38.668Z,20.73
2022-10-17T12:46:52.281Z,20.48
2022-10-17T12:49:04.603Z,20.49
2022-10-17T12:51:34.170Z,20.74
2022-10-17T12:53:41.906Z,20.70
2022-10-17T12:55:44.470Z,20.62
2022-10-17T12:57:58.349Z,20.88
2022-10-17T13:00:04.897Z,21.09
2022-10-17T13:02:18.280Z,21.15
2022-10-17T13:04:22.169Z,21.19
2022-10-17T13:06:27.940Z,21.46
2022-10-17T13:08:32.769Z,21.36
2022-10-17T13:12:41.356Z,21.63
2022-10-17T13:14:47.020Z,21.77
2022-10-17T13:16:55.046Z,21.71
2022-10-17T13:18:59.353Z,21.68
2022-10-17T13:21:04.621Z,21.61
2022-10-17T13:23:07.449Z,21.83
2022-10-17T13:25:16.385Z,21.83
2022-10-17T13:27:30.009Z,21.79
2022-10-17T13:29:33.260Z,21.79
2022-10-17T13:31:37.697Z,21.95
2022-10-17T13:33:42.281Z,21.89
2022-10-17T13:35:59.941Z,21.86
2022-10-17T13:38:07.468Z,22.16
2022-10-17T13:40:40.233Z,22.13
2022-10-17T13:42:42.308Z,22.04
2022-10-17T13:44:45.106Z,21.98
2022-10-17T13:46:48.072Z,22.09
2022-10-17T13:48:50.792Z,22.35
2022-10-17T13:50:59.109Z,22.54
2022-10-17T13:53:25.470Z,22.91
2022-10-17T13:55:28.181Z,22.80
2022-10-17T13:57:32.771Z,22.93
2022-10-17T13:59:40.541Z,23.00
2022-10-17T14:01:43.581Z,23.22
2022-10-17T14:03:49.796Z,23.23
2022-10-17T14:06:12.620Z,23.31
2022-10-17T14:08:22.765Z,23.25
2022-10-17T14:10:27.703Z,23.50
2022-10-17T14:12:30.352Z,23.35
2022-10-17T14:14:51.635Z,23.31
2022-10-17T14:16:56.500Z,23.54
2022-10-17T14:18:59.128Z,23.55
2022-10-17T14:23:35.304Z,23.62
2022-10-17T14:25:38.706Z,23.63
2022-10-17T14:27:58.089Z,23.54
2022-10-17T14:30:06.926Z,23.51
2022-10-17T14:32:14.767Z,23.61
2022-10-17T14:34:23.006Z,23.58
2022-10-17T14:36:38.512Z,23.64
2022-10-17T14:38:46.511Z,23.57
2022-10-17T14:40:52.210Z,23.49
2022-10-17T14:42:56.717Z,23.46
2022-10-17T14:45:09.000Z,23.44
2022-10-17T14:47:42.269Z,23.38
2022-10-17T14:49:42.806Z,23.28
2022-10-17T14:52:19.168Z,23.31
2022-10-17T14:54:26.809Z,23.35
2022-10-17T14:56:37.393Z,23.31
2022-10-17T14:58:40.076Z,23.34
2022-10-17T15:00:42.640Z,23.24
2022-10-17T15:02:46.193Z,23.13
2022-10-17T15:04:48.831Z,22.97
2022-10-17T15:06:55.779Z,22.82
2022-10-17T15:08:58.843Z,22.75
2022-10-17T15:11:02.815Z,22.66
2022-10-17T15:15:28.783Z,22.51
2022-10-17T15:17:32.371Z,22.43
2022-10-17T15:19:35.041Z,22.41
2022-10-17T15:21:40.815Z,22.33
2022-10-17T15:23:47.356Z,22.23
2022-10-17T15:25:50.047Z,22.14
2022-10-17T15:27:54.647Z,21.99
2022-10-17T15:29:57.253Z,21.89
2022-10-17T15:31:59.847Z,21.79
2022-10-17T15:34:02.492Z,21.70
2022-10-17T15:36:05.409Z,21.60
2022-10-17T15:38:08.470Z,21.51
2022-10-17T15:40:15.773Z,21.43
2022-10-17T15:42:18.346Z,21.36
2022-10-17T15:44:22.421Z,21.27
2022-10-17T15:46:27.268Z,21.20
2022-10-17T15:48:32.628Z,21.13
2022-10-17T15:50:35.224Z,21.08
2022-10-17T15:52:37.803Z,21.01
2022-10-17T15:54:40.744Z,20.97
2022-10-17T15:56:44.421Z,20.91
2022-10-17T15:58:47.393Z,20.90
2022-10-17T16:00:51.697Z,20.90
2022-10-17T16:02:54.448Z,20.89
2022-10-17T16:04:58.530Z,20.88
2022-10-17T16:07:01.137Z,20.86
2022-10-17T16:09:03.712Z,20.83
2022-10-17T16:11:06.565Z,20.81
2022-10-17T16:13:18.312Z,20.77
2022-10-17T16:15:22.723Z,20.74
2022-10-17T16:17:26.831Z,20.70
2022-10-17T16:19:30.038Z,20.63
2022-10-17T16:21:34.777Z,20.57
2022-10-17T16:23:37.693Z,20.53
2022-10-17T16:25:40.780Z,20.49
2022-10-17T16:27:43.549Z,20.47
2022-10-17T16:29:46.112Z,20.39
2022-10-17T16:31:48.685Z,20.33
2022-10-17T16:33:56.825Z,20.28
2022-10-17T16:35:59.442Z,20.17
2022-10-17T16:38:02.010Z,20.09
2022-10-17T16:40:05.323Z,20.02
2022-10-17T16:42:07.979Z,19.94
2022-10-17T16:44:14.491Z,19.88
2022-10-17T16:46:17.525Z,19.83
2022-10-17T16:48:20.192Z,19.76
2022-10-17T16:50:24.420Z,19.72
2022-10-17T16:52:27.237Z,19.69
2022-10-17T16:54:30.161Z,19.66
2022-10-17T16:56:32.967Z,19.63
2022-10-17T16:58:35.628Z,19.58
2022-10-17T17:00:39.895Z,19.54
2022-10-17T17:02:42.512Z,19.47
2022-10-17T17:04:45.194Z,19.44
2022-10-17T17:06:49.343Z,19.42
2022-10-17T17:08:52.242Z,19.16
2022-10-17T17:10:55.519Z,19.07
2022-10-17T17:12:58.470Z,18.97
2022-10-17T17:15:01.145Z,18.93
2022-10-17T17:17:03.720Z,18.94
2022-10-17T17:19:08.404Z,18.86
2022-10-17T17:21:11.790Z,18.86
2022-10-17T17:23:16.088Z,18.83
2022-10-17T17:25:18.736Z,18.81
2022-10-17T17:27:21.553Z,18.81
2022-10-17T17:29:25.606Z,18.80
2022-10-17T17:31:30.913Z,18.78
2022-10-17T17:33:33.775Z,18.75
2022-10-17T17:35:39.823Z,18.72
2022-10-17T17:37:42.814Z,18.67
2022-10-17T17:39:46.762Z,18.66
2022-10-17T17:41:49.321Z,18.59
2022-10-17T17:43:52.327Z,18.55
2022-10-17T17:45:54.923Z,18.56
2022-10-17T17:47:57.805Z,18.50
2022-10-17T17:50:00.462Z,18.53
2022-10-17T17:54:11.430Z,18.43
2022-10-17T17:56:17.185Z,18.39
2022-10-17T17:58:19.751Z,18.35
2022-10-17T18:00:22.364Z,18.31
2022-10-17T18:02:24.999Z,18.26
2022-10-17T18:04:28.145Z,18.25
2022-10-17T18:06:30.760Z,18.20
2022-10-17T18:08:33.656Z,18.17
2022-10-17T18:10:36.284Z,18.14
2022-10-17T18:12:40.263Z,18.13
2022-10-17T18:14:42.850Z,18.11
2022-10-17T18:16:45.486Z,18.10
2022-10-17T18:18:48.367Z,18.10
2022-10-17T18:20:50.937Z,18.09
2022-10-17T18:22:53.493Z,18.08
2022-10-17T18:24:56.052Z,18.03
2022-10-17T18:26:59.832Z,18.03
2022-10-17T18:29:04.543Z,18.02
2022-10-17T18:31:08.194Z,17.99
2022-10-17T18:33:10.749Z,17.95
2022-10-17T18:35:13.442Z,17.91
2022-10-17T18:37:16.496Z,17.95
2022-10-17T18:39:19.187Z,17.99
2022-10-17T18:41:24.099Z,17.87
2022-10-17T18:43:26.679Z,17.76
2022-10-17T18:45:30.604Z,17.70
2022-10-17T18:47:33.236Z,17.67
2022-10-17T18:49:36.407Z,17.64
2022-10-17T18:51:39.616Z,17.61
2022-10-17T18:53:43.141Z,17.59
2022-10-17T18:57:50.023Z,17.52
2022-10-17T18:59:52.601Z,17.48
2022-10-17T19:01:56.694Z,17.44
2022-10-17T19:04:00.279Z,17.41
2022-10-17T19:06:03.795Z,17.36
2022-10-17T19:08:06.984Z,17.33
2022-10-17T19:10:10.218Z,17.31
2022-10-17T19:12:12.789Z,17.32
2022-10-17T19:14:15.438Z,17.29
2022-10-17T19:16:19.963Z,17.25
2022-10-17T19:18:23.922Z,17.22
2022-10-17T19:20:26.644Z,17.21
2022-10-17T19:22:31.197Z,17.18
2022-10-17T19:24:33.820Z,17.18
2022-10-17T19:26:37.614Z,17.19
2022-10-17T19:28:42.118Z,17.16
2022-10-17T19:30:44.846Z,17.20
2022-10-17T19:32:48.380Z,17.18
2022-10-17T19:34:52.261Z,17.25
2022-10-17T19:36:55.690Z,17.42
2022-10-17T19:38:58.704Z,17.44
2022-10-17T19:41:01.489Z,17.49
2022-10-17T19:43:04.389Z,17.50
2022-10-17T19:45:08.554Z,17.42
2022-10-17T19:47:11.112Z,17.46
2022-10-17T19:49:14.078Z,17.42
2022-10-17T19:51:20.002Z,17.48
2022-10-17T19:53:24.411Z,17.40
2022-10-17T19:55:26.981Z,17.33
2022-10-17T19:57:29.505Z,17.33
2022-10-17T19:59:32.082Z,17.44
2022-10-17T20:01:36.061Z,17.37
2022-10-17T20:03:38.820Z,17.30
2022-10-17T20:05:41.425Z,17.23
2022-10-17T20:07:48.349Z,17.16
2022-10-17T20:09:51.085Z,17.11
2022-10-17T20:11:53.640Z,17.08
2022-10-17T20:13:57.103Z,17.06
2022-10-17T20:15:59.958Z,17.07
2022-10-17T20:18:02.908Z,17.12
2022-10-17T20:20:08.742Z,17.06
2022-10-17T20:22:11.638Z,17.01
2022-10-17T20:24:17.457Z,17.01
2022-10-17T20:26:37.540Z,17.01
2022-10-17T20:28:41.944Z,16.98
2022-10-17T20:30:46.503Z,16.96
2022-10-17T20:32:49.175Z,16.94
2022-10-17T20:34:51.874Z,16.93
2022-10-17T20:36:54.481Z,16.88
2022-10-17T20:38:58.676Z,16.82
2022-10-17T20:41:03.677Z,16.64
2022-10-17T20:43:08.445Z,16.73
2022-10-17T20:45:12.176Z,16.68
2022-10-17T20:47:26.492Z,16.66
2022-10-17T20:49:35.517Z,16.59
2022-10-17T20:51:38.364Z,16.61
2022-10-17T20:53:40.929Z,16.60
2022-10-17T20:55:43.670Z,16.60
2022-10-17T20:57:47.719Z,16.62
2022-10-17T20:59:50.498Z,16.64
2022-10-17T21:01:54.848Z,16.65
2022-10-17T21:04:06.169Z,16.65
2022-10-17T21:06:19.604Z,16.64
2022-10-17T21:08:22.319Z,16.63
2022-10-17T21:10:34.948Z,16.59
2022-10-17T21:12:53.096Z,16.56
2022-10-17T21:14:58.107Z,16.54
2022-10-17T21:17:04.763Z,16.49
2022-10-17T21:19:08.065Z,16.44
2022-10-17T21:21:13.494Z,16.41
2022-10-17T21:23:16.090Z,16.39
2022-10-17T21:25:19.331Z,16.32
2022-10-17T21:27:21.924Z,16.27
2022-10-17T21:29:25.038Z,16.23
2022-10-17T21:31:29.024Z,16.21
2022-10-17T21:33:34.351Z,16.18
2022-10-17T21:35:36.937Z,16.15
2022-10-17T21:37:39.531Z,16.14
2022-10-17T21:39:42.112Z,16.11
2022-10-17T21:41:45.638Z,16.07
2022-10-17T21:43:49.218Z,16.03
2022-10-17T21:45:51.802Z,16.00
2022-10-17T21:48:12.351Z,15.94
2022-10-17T21:50:15.429Z,15.93
2022-10-17T21:52:18.009Z,15.86
2022-10-17T21:54:22.845Z,15.85
2022-10-17T21:56:28.649Z,15.79
2022-10-17T21:58:31.926Z,15.72
2022-10-17T22:00:34.537Z,15.71
2022-10-17T22:02:37.145Z,15.65
2022-10-17T22:04:41.091Z,15.59
2022-10-17T22:06:45.792Z,15.55
2022-10-17T22:08:48.960Z,15.50
2022-10-17T22:10:51.532Z,15.49
2022-10-17T22:12:54.081Z,15.53
2022-10-17T22:14:56.634Z,15.56
2022-10-17T22:16:59.244Z,15.44
2022-10-17T22:19:06.184Z,15.39
2022-10-17T22:21:13.351Z,15.39
2022-10-17T22:23:15.928Z,15.38
2022-10-17T22:25:18.560Z,15.37
2022-10-17T22:27:21.108Z,15.33
2022-10-17T22:29:23.709Z,15.32
2022-10-17T22:31:26.942Z,15.26
2022-10-17T22:33:29.622Z,15.30
2022-10-17T22:35:32.183Z,15.28
2022-10-17T22:37:36.436Z,15.38
2022-10-17T22:39:39.597Z,15.36
2022-10-17T22:41:42.216Z,15.30
2022-10-17T22:43:44.863Z,15.27
2022-10-17T22:45:52.804Z,15.34
2022-10-17T22:47:55.448Z,15.41
2022-10-17T22:49:58.381Z,15.27
2022-10-17T22:52:00.998Z,15.37
2022-10-17T22:54:05.103Z,15.37
2022-10-17T22:56:10.385Z,15.41
2022-10-17T22:58:13.004Z,15.41
2022-10-17T23:00:17.055Z,15.36
2022-10-17T23:02:19.786Z,15.38
2022-10-17T23:04:23.227Z,15.38
2022-10-17T23:06:25.830Z,15.32
2022-10-17T23:08:28.905Z,15.34
2022-10-17T23:10:32.847Z,15.27
2022-10-17T23:12:35.388Z,15.25
2022-10-17T23:14:38.450Z,15.24
2022-10-17T23:16:41.025Z,15.25
2022-10-17T23:18:44.088Z,15.18
2022-10-17T23:20:46.814Z,15.14
2022-10-17T23:22:49.749Z,15.12
2022-10-17T23:24:52.569Z,15.13
2022-10-17T23:26:56.739Z,15.12
2022-10-17T23:28:59.326Z,15.07
2022-10-17T23:31:10.163Z,15.07
2022-10-17T23:33:13.700Z,15.05
2022-10-17T23:35:16.458Z,15.10
2022-10-17T23:37:19.457Z,15.20
2022-10-17T23:39:22.401Z,15.16
2022-10-17T23:41:24.990Z,14.97
2022-10-17T23:43:29.849Z,14.87
2022-10-17T23:45:36.039Z,14.93
2022-10-17T23:47:39.795Z,14.95
2022-10-17T23:49:42.407Z,14.88
2022-10-17T23:51:45.082Z,14.83
2022-10-17T23:53:48.113Z,14.80
2022-10-17T23:55:51.153Z,14.79
2022-10-17T23:57:53.777Z,14.78
2022-10-17T23:59:57.727Z,14.76
